Wenatchee, WA (98807)

9:50 AM PDT on October 01, 2014 (GMT -0700)
Pitcher Canyon | Change Station
CLOSE
Current Station
Personal Weather Station
Location: Wenatchee, WA
Elevation: 1440 ft
Nearby Weather Stations

Elev 1440 ft 47.37 °N, 120.33 °W | Updated 30 seconds ago

Clear
Clear
56.7 °F
Feels Like 56.7 °F
N
1.0
Wind Variable Wind from SE
Gusts 2.0 mph

Today
High -- | Low -- °F
--% Chance of Precip.
Yesterday
High -- | Low -- °F
Precip. -- in
7:00 AM 6:40 PM
Waxing Crescent, 49% visible
Pressure 30.12 in
Visibility 10.0 miles
Clouds Clear
Dew Point 39 °F
Humidity 52%
Rainfall 0.00 in
Snow Depth 0 in , 0 in , 0 in
UV 1 out of 12
Pollen 1.90 out of 12
Air Quality Not available.
Flu Activity Not available.
METAR KEAT 011555Z AUTO 32006KT 10SM CLR 14/03 A3012 RMK AO2 SLP198 T01390028

More Conditions Fewer Conditions

Pressure 30.12 in
Visibility 10.0 miles
Clouds Clear
Dew Point 39 °F
Humidity 52%
Rainfall 0.00 in
Snow Depth 0 in , 0 in , 0 in
UV 1 out of 12
Pollen 1.90 out of 12
Air Quality Not available.
Flu Activity Not available.
METAR KEAT 011555Z AUTO 32006KT 10SM CLR 14/03 A3012 RMK AO2 SLP198 T01390028

More Conditions Fewer Conditions

10-Day Weather Forecast

Almanac

Astronomy

Oct. 01, 2014 Rise Set
Actual Time 7:00 AM PDT 6:40 PM PDT
Civil Twilight 6:29 AM PDT 7:10 PM PDT
Nautical Twilight 5:54 AM PDT 7:46 PM PDT
Astronomical Twilight 5:17 AM PDT 8:22 PM PDT
Moon 2:22 PM PDT No Moon Set
Length of Visible Light 12h 41m
Length of Day
11h 40m
Tomorrow will be 3m 22s shorter.
Waxing Crescent, 49% of the Moon is Illuminated
Today
Waxing Crescent
Oct 1
First Quarter
Oct 8
Full
Oct 15
Last Quarter
Oct 23
New

Today's Extremes

State Highs State Lows

Community

WunderPhotos

Upload Photos

1,757,981 photos uploaded!

WunderBlogs® & News

By Dr. Jeff Masters
Director of Meteorology, Weather Underground
By Kari Strenfel
Meteorologist, Weather Underground
By Christopher C. Burt
Weather Historian, Weather Underground
October 1, 2014
October 1, 2014
October 1, 2014

Nearby

Snow Depth

Station Depth Elevation
Sentinel Butte 0 in 4920 ft
Harts Pass 0 in 6500 ft
Olallie Meadows 0 in 3700 ft
Moses Mountain 1 in 5300 ft
Meadows Pass 0 in 3500 ft

Earthquake Activity

City Distance Mag. Time & Date
No recent earthquake activity has been reported nearby.
Minimum magnitude displayed is 2.5.

Coastal Water Temperatures

Place Temperature
No Stations Reporting

Nearby Weather Stations